Time;durP1;ratioP1;P1;durP2;ratioP2;P2;SDS_P1;SDS_P2;PMS_P1;PMS_P2;Temp;Humidity;BMP_temperature;BMP_pressure;BME280_temperature;BME280_humidity;BME280_pressure;Samples;Min_cycle;Max_cycle;Signal;HPM_P1;HPM_P2
2022/04/19 00:00:28;;;;;;;;;;;;;;;2.70;55.77;99291.41;5080222;28;20448;-63
2022/04/19 00:02:53;;;;;;;;;;;;;;;2.65;55.75;99286.75;5115754;28;20304;-63
2022/04/19 00:05:18;;;;;;;;;;;;;;;2.68;56.32;99296.06;5115302;28;19924;-63
2022/04/19 00:07:44;;;;;;;;;;;;;;;2.73;55.85;99291.03;5114215;28;19931;-62
2022/04/19 00:10:10;;;;;;;;;;;;;;;2.72;56.03;99287.63;5115455;28;19938;-63
2022/04/19 00:12:36;;;;;;;;;;;;;;;2.71;55.92;99282.59;5115288;28;20471;-64
2022/04/19 00:15:02;;;;;;;;;;;;;;;2.75;56.69;99288.25;5115332;28;20027;-64
2022/04/19 00:17:29;;;;;;;;;;;;;;;2.76;56.27;99293.28;5115250;28;19928;-64
2022/04/19 00:19:55;;;;;;;;;;;;;;;2.78;56.49;99283.44;5113731;28;20384;-64
2022/04/19 00:22:20;;;;;;;;;;;;;;;2.80;56.39;99285.88;5115039;27;20375;-63
2022/04/19 00:24:46;;;;;;;;;;;;;;;2.78;56.50;99288.69;5115150;28;20030;-64
2022/04/19 00:27:12;;;;;;;;;;;;;;;2.78;56.60;99293.91;5113969;28;19924;-64
2022/04/19 00:29:41;;;;;;;;;;;;;;;2.77;56.75;99294.13;5114864;28;20404;-65
2022/04/19 00:32:10;;;;;;;;;;;;;;;2.77;57.17;99294.13;5115350;28;20418;-64
2022/04/19 00:34:36;;;;;;;;;;;;;;;2.76;57.11;99292.47;5114762;28;19935;-63
2022/04/19 00:37:01;;;;;;;;;;;;;;;2.82;57.09;99283.88;5115253;28;19924;-63
2022/04/19 00:39:27;;;;;;;;;;;;;;;2.80;57.47;99294.53;5096493;28;19927;-64
2022/04/19 00:41:52;;;;;;;;;;;;;;;2.83;56.93;99288.94;5113240;28;20002;-64
2022/04/19 00:44:18;;;;;;;;;;;;;;;2.84;57.25;99281.88;5096269;28;20423;-62
2022/04/19 00:46:44;;;;;;;;;;;;;;;2.84;57.04;99279.25;5115017;28;20399;-63
2022/04/19 00:49:09;;;;;;;;;;;;;;;2.82;56.97;99284.66;5113173;28;19971;-63
2022/04/19 00:51:35;;;;;;;;;;;;;;;2.85;57.02;99284.28;5113422;28;19927;-63
2022/04/19 00:54:01;;;;;;;;;;;;;;;2.84;57.10;99287.91;5113395;28;19951;-64
2022/04/19 00:56:29;;;;;;;;;;;;;;;2.90;56.91;99288.97;5113325;28;19923;-62
2022/04/19 00:58:55;;;;;;;;;;;;;;;2.87;57.02;99297.22;5113075;28;19955;-63
2022/04/19 01:01:21;;;;;;;;;;;;;;;2.94;56.82;99288.41;5113199;28;20380;-63
2022/04/19 01:03:47;;;;;;;;;;;;;;;2.94;56.84;99288.41;5112917;28;20419;-63
2022/04/19 01:06:17;;;;;;;;;;;;;;;2.96;57.02;99286.38;5113312;28;20099;-62
2022/04/19 01:08:44;;;;;;;;;;;;;;;2.90;57.10;99276.69;5095504;28;19950;-64
2022/04/19 01:14:02;;;;;;;;;;;;;;;2.88;57.44;99276.09;5112852;28;19928;-63
2022/04/19 01:16:28;;;;;;;;;;;;;;;2.90;57.26;99275.88;5095890;28;19924;-63
2022/04/19 01:18:55;;;;;;;;;;;;;;;2.90;57.53;99278.50;5079073;28;19934;-64
2022/04/19 01:21:21;;;;;;;;;;;;;;;2.90;57.97;99283.72;5112829;28;19924;-63
2022/04/19 01:23:48;;;;;;;;;;;;;;;2.89;57.62;99277.69;5112398;28;19934;-63
2022/04/19 01:26:13;;;;;;;;;;;;;;;2.85;58.03;99273.81;5114095;28;19923;-62
2022/04/19 01:28:39;;;;;;;;;;;;;;;2.85;58.24;99270.41;5095809;28;19981;-62
2022/04/19 01:31:06;;;;;;;;;;;;;;;2.79;58.50;99274.56;5112716;28;19927;-62
2022/04/19 01:33:40;;;;;;;;;;;;;;;2.85;58.55;99271.19;5112379;28;19954;-63
2022/04/19 01:36:09;;;;;;;;;;;;;;;2.82;58.44;99271.59;5095713;28;19976;-63
2022/04/19 01:38:34;;;;;;;;;;;;;;;2.84;58.63;99277.44;5112210;28;20475;-62
2022/04/19 01:41:00;;;;;;;;;;;;;;;2.76;58.75;99264.50;5112381;28;19950;-62
2022/04/19 01:43:44;;;;;;;;;;;;;;;2.88;59.08;99272.63;5112044;28;19932;-63
2022/04/19 01:46:11;;;;;;;;;;;;;;;2.92;59.05;99273.88;5095296;28;20357;-63
2022/04/19 01:48:36;;;;;;;;;;;;;;;2.95;58.85;99273.50;5112405;28;19927;-64
2022/04/19 01:51:02;;;;;;;;;;;;;;;3.01;58.86;99271.94;5112350;28;20392;-62
2022/04/19 01:53:28;;;;;;;;;;;;;;;3.00;59.11;99275.53;5112008;28;19970;-62
2022/04/19 01:55:55;;;;;;;;;;;;;;;3.02;59.04;99266.50;5112208;28;19970;-61
2022/04/19 01:58:56;;;;;;;;;;;;;;;3.02;59.14;99263.06;5118978;27;19972;-62
2022/04/19 02:01:51;;;;;;;;;;;;;;;3.03;59.09;99267.28;5090212;28;20368;-63
2022/04/19 02:04:18;;;;;;;;;;;;;;;2.99;59.01;99266.88;5090161;28;19966;-63
2022/04/19 02:06:45;;;;;;;;;;;;;;;2.95;59.42;99263.03;5090249;28;19934;-61
2022/04/19 02:09:10;;;;;;;;;;;;;;;2.91;59.35;99260.00;5073257;28;20413;-62
2022/04/19 02:11:37;;;;;;;;;;;;;;;2.86;59.80;99249.28;5073355;28;19924;-62
2022/04/19 02:14:23;;;;;;;;;;;;;;;2.84;60.08;99258.31;5089895;28;20483;-62
2022/04/19 02:16:52;;;;;;;;;;;;;;;2.80;60.16;99262.31;5073243;28;19968;-62
2022/04/19 02:19:19;;;;;;;;;;;;;;;2.72;60.58;99264.06;5072579;28;19936;-62
2022/04/19 02:21:45;;;;;;;;;;;;;;;2.67;60.71;99266.44;5072621;28;20408;-62
2022/04/19 02:24:11;;;;;;;;;;;;;;;2.69;60.73;99259.22;5089769;28;20046;-62
2022/04/19 02:26:37;;;;;;;;;;;;;;;2.71;61.07;99251.19;5056460;28;19964;-62
2022/04/19 02:29:03;;;;;;;;;;;;;;;2.74;60.87;99256.03;5072804;28;19966;-63
2022/04/19 02:31:35;;;;;;;;;;;;;;;2.79;60.85;99253.63;5073134;28;19930;-64
2022/04/19 02:34:01;;;;;;;;;;;;;;;2.86;60.78;99251.09;5077088;28;19989;-63
2022/04/19 02:36:26;;;;;;;;;;;;;;;2.91;60.69;99254.75;5094347;28;20389;-62
2022/04/19 02:38:53;;;;;;;;;;;;;;;3.01;60.45;99256.22;5111687;28;20335;-62
2022/04/19 02:41:19;;;;;;;;;;;;;;;3.07;60.59;99263.31;5094171;28;20423;-61
2022/04/19 02:43:48;;;;;;;;;;;;;;;3.19;60.11;99280.09;5111505;28;19951;-62
2022/04/19 02:46:14;;;;;;;;;;;;;;;3.35;59.99;99261.47;5111138;28;19924;-62
2022/04/19 02:48:44;;;;;;;;;;;;;;;3.44;59.52;99272.59;5111241;28;19978;-63
2022/04/19 02:51:11;;;;;;;;;;;;;;;3.46;59.20;99260.09;5112570;28;19924;-62
2022/04/19 02:53:36;;;;;;;;;;;;;;;3.67;58.57;99279.34;5111228;28;19972;-62
2022/04/19 02:56:03;;;;;;;;;;;;;;;3.82;58.56;99285.25;5112273;28;19976;-61
2022/04/19 02:58:30;;;;;;;;;;;;;;;3.95;57.55;99287.13;5094448;28;20392;-62
2022/04/19 03:00:56;;;;;;;;;;;;;;;4.12;57.19;99288.41;5110827;28;20001;-62
2022/04/19 03:03:22;;;;;;;;;;;;;;;4.25;56.72;99292.88;5110838;28;19977;-62
2022/04/19 03:05:50;;;;;;;;;;;;;;;4.35;56.92;99295.91;5110843;28;20525;-61
2022/04/19 03:08:16;;;;;;;;;;;;;;;4.43;56.29;99300.16;5110796;28;19923;-62
2022/04/19 03:10:41;;;;;;;;;;;;;;;4.53;56.48;99296.16;5111927;28;20295;-62
2022/04/19 03:13:07;;;;;;;;;;;;;;;4.60;56.00;99292.72;5093944;28;19928;-61
2022/04/19 03:15:38;;;;;;;;;;;;;;;4.73;56.24;99290.91;5110662;28;19920;-61
2022/04/19 03:18:04;;;;;;;;;;;;;;;4.83;55.09;99303.66;5111078;28;19934;-63
2022/04/19 03:20:33;;;;;;;;;;;;;;;4.90;55.38;99301.81;5094071;28;19928;-62
2022/04/19 03:28:32;;;;;;;;;;;;;;;4.96;55.75;99305.47;5110822;28;20339;-62
2022/04/19 03:30:58;;;;;;;;;;;;;;;5.07;55.41;99302.22;5110478;28;20030;-62
2022/04/19 03:33:24;;;;;;;;;;;;;;;5.06;55.05;99308.50;5114960;28;19927;-62
2022/04/19 03:35:49;;;;;;;;;;;;;;;5.27;55.45;99312.72;5114530;28;19927;-61
2022/04/19 03:38:16;;;;;;;;;;;;;;;5.34;54.86;99323.22;5114747;28;20056;-62
2022/04/19 03:40:42;;;;;;;;;;;;;;;5.36;55.04;99321.19;5114642;28;20304;-61
2022/04/19 03:43:08;;;;;;;;;;;;;;;5.41;54.39;99306.44;5114661;28;19928;-62
2022/04/19 03:45:34;;;;;;;;;;;;;;;5.71;54.68;99319.09;5097798;28;19963;-61
2022/04/19 03:48:01;;;;;;;;;;;;;;;5.83;54.29;99319.25;5080568;28;19927;-64
2022/04/19 03:50:28;;;;;;;;;;;;;;;5.98;53.61;99319.03;5097390;28;19924;-62
2022/04/19 03:52:53;;;;;;;;;;;;;;;5.98;53.45;99326.91;5115500;28;19935;-61
2022/04/19 03:55:20;;;;;;;;;;;;;;;6.02;53.22;99325.47;5097056;28;19930;-62
2022/04/19 03:57:46;;;;;;;;;;;;;;;6.18;52.93;99327.63;5114082;28;19927;-62
2022/04/19 04:00:13;;;;;;;;;;;;;;;6.25;53.59;99324.97;5114311;28;19930;-62
2022/04/19 04:02:45;;;;;;;;;;;;;;;6.39;53.13;99325.72;5115170;28;20500;-61
2022/04/19 04:05:24;;;;;;;;;;;;;;;6.56;52.71;99327.63;5114336;28;20404;-62
2022/04/19 04:07:50;;;;;;;;;;;;;;;6.59;52.46;99319.31;5080257;28;19927;-61
2022/04/19 04:10:19;;;;;;;;;;;;;;;6.72;52.09;99325.50;5115404;28;19919;-62
2022/04/19 04:12:44;;;;;;;;;;;;;;;6.79;52.10;99323.59;5113802;28;20085;-62
2022/04/19 04:15:11;;;;;;;;;;;;;;;6.79;52.40;99324.44;5113840;28;20025;-62
2022/04/19 04:17:37;;;;;;;;;;;;;;;6.76;52.17;99330.09;5113672;28;20432;-62
2022/04/19 04:20:03;;;;;;;;;;;;;;;6.69;52.41;99333.81;5097244;28;20304;-62
2022/04/19 04:22:30;;;;;;;;;;;;;;;6.85;52.06;99338.56;5113586;28;19981;-62
2022/04/19 04:24:56;;;;;;;;;;;;;;;6.90;52.61;99333.47;5114129;28;19930;-62
2022/04/19 04:27:23;;;;;;;;;;;;;;;7.03;52.61;99327.28;5113863;28;19951;-62
2022/04/19 04:29:49;;;;;;;;;;;;;;;6.99;52.24;99334.81;5114926;28;20385;-63
2022/04/19 04:32:15;;;;;;;;;;;;;;;6.80;53.06;99331.31;5113445;28;19931;-62
2022/04/19 04:34:42;;;;;;;;;;;;;;;6.82;52.97;99333.72;5113963;28;20018;-63
2022/04/19 04:37:09;;;;;;;;;;;;;;;6.90;53.41;99330.81;5113434;28;19928;-62
2022/04/19 04:39:42;;;;;;;;;;;;;;;7.03;53.19;99327.28;5113762;28;19931;-63
2022/04/19 04:42:25;;;;;;;;;;;;;;;7.02;52.91;99329.09;5113951;28;20038;-62
2022/04/19 04:44:55;;;;;;;;;;;;;;;7.19;52.90;99341.75;5112911;28;20365;-62
2022/04/19 04:50:08;;;;;;;;;;;;;;;7.29;52.76;99347.31;5096119;28;20001;-64
2022/04/19 04:52:34;;;;;;;;;;;;;;;7.37;52.65;99344.41;5095883;28;19931;-63
2022/04/19 04:54:59;;;;;;;;;;;;;;;7.36;52.57;99349.91;5112827;28;19968;-61
2022/04/19 04:57:29;;;;;;;;;;;;;;;7.48;52.65;99353.44;5112609;28;20498;-62
2022/04/19 04:59:55;;;;;;;;;;;;;;;7.31;53.24;99358.47;5113083;28;19966;-62
2022/04/19 05:02:23;;;;;;;;;;;;;;;7.20;53.51;99346.00;5113042;28;19931;-62
2022/04/19 05:04:50;;;;;;;;;;;;;;;7.13;54.27;99347.88;5112885;28;20288;-61
2022/04/19 05:07:17;;;;;;;;;;;;;;;7.12;54.02;99362.06;5112697;28;19928;-62
2022/04/19 05:09:49;;;;;;;;;;;;;;;7.01;55.22;99363.59;5112859;28;19924;-62
2022/04/19 05:12:14;;;;;;;;;;;;;;;7.01;55.30;99343.31;5112181;28;19939;-61
2022/04/19 05:14:40;;;;;;;;;;;;;;;7.04;55.24;99348.16;5112651;28;19924;-66
2022/04/19 05:17:07;;;;;;;;;;;;;;;7.18;53.99;99338.31;5112535;28;20412;-62
2022/04/19 05:19:36;;;;;;;;;;;;;;;7.18;54.77;99346.22;5112740;28;20349;-61
2022/04/19 05:22:03;;;;;;;;;;;;;;;7.18;55.23;99334.88;5112610;28;19930;-61
2022/04/19 05:24:29;;;;;;;;;;;;;;;7.15;55.76;99340.56;5112541;28;19934;-62
2022/04/19 05:26:55;;;;;;;;;;;;;;;7.24;54.52;99341.91;5112390;28;19928;-64
2022/04/19 05:29:21;;;;;;;;;;;;;;;7.25;53.84;99346.16;5112870;28;19927;-62
2022/04/19 05:31:46;;;;;;;;;;;;;;;7.41;54.07;99339.50;5112255;28;19920;-62
2022/04/19 05:34:13;;;;;;;;;;;;;;;7.51;53.50;99342.47;5112488;28;19928;-61
2022/04/19 05:36:40;;;;;;;;;;;;;;;7.56;53.62;99342.63;5112352;28;19928;-61
2022/04/19 05:39:06;;;;;;;;;;;;;;;7.61;53.45;99331.41;5112040;28;20358;-61
2022/04/19 05:41:33;;;;;;;;;;;;;;;7.66;53.13;99344.75;5112002;28;19924;-61
2022/04/19 05:43:59;;;;;;;;;;;;;;;7.67;53.14;99333.97;5113369;28;19928;-61
2022/04/19 05:46:25;;;;;;;;;;;;;;;7.68;53.34;99326.88;5112222;28;19928;-62
2022/04/19 05:48:51;;;;;;;;;;;;;;;7.68;53.22;99348.78;5111941;28;19935;-62
2022/04/19 05:51:16;;;;;;;;;;;;;;;7.66;53.05;99342.09;5095828;28;19931;-61
2022/04/19 05:53:42;;;;;;;;;;;;;;;7.71;53.12;99352.81;5091624;28;19974;-62
2022/04/19 05:56:10;;;;;;;;;;;;;;;7.66;52.87;99332.34;5074640;28;19935;-60
2022/04/19 05:58:35;;;;;;;;;;;;;;;7.72;52.43;99330.69;5074833;28;19928;-62
2022/04/19 06:01:01;;;;;;;;;;;;;;;7.71;52.89;99339.63;5091432;28;19970;-61
2022/04/19 06:06:14;;;;;;;;;;;;;;;7.80;51.93;99348.88;5073105;28;19976;-60
2022/04/19 06:08:42;;;;;;;;;;;;;;;7.87;51.29;99343.50;5089102;28;19953;-61
2022/04/19 06:11:11;;;;;;;;;;;;;;;8.00;51.26;99331.97;5087701;28;19935;-62
2022/04/19 06:13:37;;;;;;;;;;;;;;;8.18;50.79;99335.41;5071758;28;20081;-62
2022/04/19 06:16:04;;;;;;;;;;;;;;;8.29;50.56;99346.22;5089398;28;19955;-60
2022/04/19 06:18:30;;;;;;;;;;;;;;;8.28;50.62;99328.78;5088865;28;19951;-60
2022/04/19 06:21:04;;;;;;;;;;;;;;;8.28;50.00;99348.06;5088525;28;19985;-61
2022/04/19 06:23:31;;;;;;;;;;;;;;;8.24;50.31;99341.63;5089770;28;19935;-63
2022/04/19 06:25:56;;;;;;;;;;;;;;;8.22;50.27;99348.16;5089423;28;19924;-62
2022/04/19 06:28:25;;;;;;;;;;;;;;;8.39;49.92;99336.00;5084484;28;20092;-62
2022/04/19 06:31:09;;;;;;;;;;;;;;;8.55;49.58;99340.63;5088191;28;19928;-64
2022/04/19 06:33:36;;;;;;;;;;;;;;;8.52;49.88;99333.16;5089211;28;19932;-65
2022/04/19 06:36:03;;;;;;;;;;;;;;;8.63;50.04;99345.59;5071144;28;20246;-62
2022/04/19 06:38:29;;;;;;;;;;;;;;;8.90;49.44;99339.09;5087869;28;19929;-61
2022/04/19 06:40:59;;;;;;;;;;;;;;;9.03;49.13;99333.59;5087267;28;19971;-62
2022/04/19 06:43:25;;;;;;;;;;;;;;;9.23;49.16;99341.22;5085289;28;19951;-61
2022/04/19 06:45:56;;;;;;;;;;;;;;;9.09;49.37;99335.34;5087048;28;19974;-62
2022/04/19 06:48:26;;;;;;;;;;;;;;;9.13;48.21;99351.56;5089008;28;19935;-61
2022/04/19 06:50:52;;;;;;;;;;;;;;;9.04;48.59;99341.31;5088844;28;20292;-61
2022/04/19 06:53:18;;;;;;;;;;;;;;;8.97;48.78;99347.72;5087831;28;20363;-62
2022/04/19 06:56:19;;;;;;;;;;;;;;;8.78;49.60;99339.88;5047634;28;19924;-61
2022/04/19 06:58:45;;;;;;;;;;;;;;;8.64;50.48;99370.16;5079483;28;19939;-62
2022/04/19 07:01:11;;;;;;;;;;;;;;;8.58;50.17;99356.03;5070663;28;19924;-61
2022/04/19 07:03:37;;;;;;;;;;;;;;;8.57;50.57;99350.97;5082417;28;19965;-61
2022/04/19 07:06:28;;;;;;;;;;;;;;;8.59;51.03;99347.09;5084096;28;19969;-62
2022/04/19 07:08:54;;;;;;;;;;;;;;;8.53;51.58;99350.63;5062945;28;20292;-62
2022/04/19 07:11:19;;;;;;;;;;;;;;;8.65;50.83;99348.03;5065867;28;19924;-61
2022/04/19 07:13:59;;;;;;;;;;;;;;;8.68;51.17;99344.94;5068785;28;19982;-61
2022/04/19 07:17:03;;;;;;;;;;;;;;;8.66;51.20;99336.41;5048988;28;20451;-62
2022/04/19 07:28:08;;;;;;;;;;;;;;;9.15;50.58;99323.03;5066758;28;19936;-62
2022/04/19 07:30:39;;;;;;;;;;;;;;;9.12;50.72;99324.31;5068615;28;19925;-62
2022/04/19 07:33:05;;;;;;;;;;;;;;;9.15;51.27;99325.66;5050135;28;20365;-61
2022/04/19 07:35:33;;;;;;;;;;;;;;;9.17;50.36;99337.63;5065306;28;20355;-62
2022/04/19 07:38:00;;;;;;;;;;;;;;;8.99;51.35;99338.53;5065836;28;19928;-63
2022/04/19 07:40:51;;;;;;;;;;;;;;;8.97;51.83;99331.88;5066360;28;20369;-63
2022/04/19 07:43:18;;;;;;;;;;;;;;;8.90;52.21;99337.25;5067316;28;19940;-62
2022/04/19 07:45:44;;;;;;;;;;;;;;;8.87;52.30;99327.94;5051367;28;19925;-61
2022/04/19 07:48:09;;;;;;;;;;;;;;;8.90;52.10;99354.97;5066788;28;19929;-65
2022/04/19 07:50:35;;;;;;;;;;;;;;;8.89;52.58;99348.06;5065987;28;19929;-62
2022/04/19 07:53:01;;;;;;;;;;;;;;;8.93;51.88;99351.88;5068342;28;19928;-63
2022/04/19 07:55:27;;;;;;;;;;;;;;;9.02;52.47;99335.44;5068550;28;20317;-62
2022/04/19 07:57:54;;;;;;;;;;;;;;;9.30;52.11;99328.69;5067277;28;19971;-63
2022/04/19 08:00:21;;;;;;;;;;;;;;;9.60;50.71;99333.84;5066962;28;19931;-61
2022/04/19 08:02:48;;;;;;;;;;;;;;;9.80;49.91;99343.25;5048366;28;19928;-62
2022/04/19 08:05:17;;;;;;;;;;;;;;;9.79;50.41;99326.53;5051157;28;19931;-63
2022/04/19 08:07:43;;;;;;;;;;;;;;;10.10;50.19;99335.13;5067858;28;19928;-61
2022/04/19 08:10:09;;;;;;;;;;;;;;;10.21;49.74;99329.78;5066290;28;20236;-62
2022/04/19 08:12:36;;;;;;;;;;;;;;;10.39;48.81;99326.16;5066107;28;20046;-62
2022/04/19 08:15:02;;;;;;;;;;;;;;;10.50;49.57;99324.50;5050677;28;19925;-62
2022/04/19 08:17:28;;;;;;;;;;;;;;;10.57;48.86;99322.50;5066502;28;20385;-62
2022/04/19 08:19:54;;;;;;;;;;;;;;;10.45;49.16;99327.88;5070327;28;19931;-63
2022/04/19 08:22:21;;;;;;;;;;;;;;;10.49;49.50;99330.84;5070487;28;19932;-63
2022/04/19 08:24:55;;;;;;;;;;;;;;;10.55;49.42;99332.53;5072419;28;19928;-62
2022/04/19 08:27:21;;;;;;;;;;;;;;;10.57;49.38;99337.59;5070280;28;20355;-61
2022/04/19 08:29:48;;;;;;;;;;;;;;;10.63;49.13;99340.09;5078941;28;19931;-63
2022/04/19 08:32:13;;;;;;;;;;;;;;;10.64;49.34;99343.56;5090222;28;19924;-61
2022/04/19 08:34:39;;;;;;;;;;;;;;;10.71;48.90;99341.56;5090601;28;19935;-63
2022/04/19 08:37:05;;;;;;;;;;;;;;;10.81;48.74;99348.88;5090397;28;20491;-61
2022/04/19 08:39:31;;;;;;;;;;;;;;;10.67;49.31;99343.88;5091232;28;19928;-61
2022/04/19 08:41:57;;;;;;;;;;;;;;;10.79;49.15;99346.47;5040563;28;20354;-65
2022/04/19 08:44:23;;;;;;;;;;;;;;;10.91;48.42;99343.75;5083388;28;20024;-63
2022/04/19 08:46:49;;;;;;;;;;;;;;;11.03;48.89;99349.78;5089472;28;20395;-65
2022/04/19 08:49:16;;;;;;;;;;;;;;;11.16;48.05;99345.22;5090932;28;20005;-65
2022/04/19 08:51:41;;;;;;;;;;;;;;;11.32;47.88;99349.69;5090014;28;20261;-65
2022/04/19 08:59:38;;;;;;;;;;;;;;;11.40;47.75;99338.66;5090879;28;19981;-61
2022/04/19 09:02:04;;;;;;;;;;;;;;;11.36;47.58;99330.38;5090878;28;19923;-62
2022/04/19 09:04:30;;;;;;;;;;;;;;;11.17;47.99;99344.16;5090092;28;20026;-63
2022/04/19 09:06:57;;;;;;;;;;;;;;;11.13;47.92;99344.63;5091437;28;19992;-62
2022/04/19 09:09:23;;;;;;;;;;;;;;;11.08;47.85;99336.59;5090960;28;20320;-62
2022/04/19 09:11:49;;;;;;;;;;;;;;;10.93;47.86;99338.22;5087494;28;19924;-61
2022/04/19 09:14:14;;;;;;;;;;;;;;;10.90;48.17;99339.50;5087248;28;19967;-62
2022/04/19 09:16:40;;;;;;;;;;;;;;;10.90;48.49;99344.78;5089359;28;19959;-61
2022/04/19 09:19:08;;;;;;;;;;;;;;;11.14;48.37;99337.47;5090507;28;20416;-63
2022/04/19 09:21:36;;;;;;;;;;;;;;;11.32;48.19;99329.28;5090269;28;19982;-63
2022/04/19 09:24:01;;;;;;;;;;;;;;;11.54;47.75;99339.94;5089989;28;19973;-63
2022/04/19 09:26:42;;;;;;;;;;;;;;;11.60;47.28;99341.59;5073660;28;19924;-65
2022/04/19 09:29:15;;;;;;;;;;;;;;;11.74;47.05;99333.28;5088520;28;20372;-65
2022/04/19 09:31:40;;;;;;;;;;;;;;;11.64;48.05;99331.28;5091183;28;19931;-62
2022/04/19 09:34:06;;;;;;;;;;;;;;;11.56;48.35;99323.78;5070376;28;19928;-61
2022/04/19 09:36:32;;;;;;;;;;;;;;;11.67;48.17;99316.72;5091610;28;19924;-64
2022/04/19 09:38:58;;;;;;;;;;;;;;;11.69;48.69;99310.13;5085368;28;19928;-64
2022/04/19 09:41:30;;;;;;;;;;;;;;;11.57;48.95;99320.84;5069619;28;20012;-64
2022/04/19 09:44:06;;;;;;;;;;;;;;;11.63;49.47;99319.06;5086798;28;19938;-63
2022/04/19 09:46:31;;;;;;;;;;;;;;;11.63;49.03;99336.84;5090940;28;19969;-62
2022/04/19 09:48:57;;;;;;;;;;;;;;;11.49;49.01;99333.75;5073324;28;19928;-63
2022/04/19 09:51:23;;;;;;;;;;;;;;;11.42;49.37;99336.56;5070198;28;20443;-63
2022/04/19 09:53:49;;;;;;;;;;;;;;;11.32;49.58;99320.50;5067555;28;19928;-62
2022/04/19 09:56:15;;;;;;;;;;;;;;;11.43;49.79;99324.09;5066504;28;19970;-64
2022/04/19 09:58:41;;;;;;;;;;;;;;;11.49;50.36;99321.28;5065042;28;20318;-65
2022/04/19 10:01:07;;;;;;;;;;;;;;;11.63;49.35;99342.16;5071026;28;20029;-62
2022/04/19 10:09:05;;;;;;;;;;;;;;;11.50;50.23;99333.50;5091791;28;19974;-63
2022/04/19 10:11:30;;;;;;;;;;;;;;;11.53;50.33;99341.00;5109634;28;20314;-63
2022/04/19 10:13:56;;;;;;;;;;;;;;;11.62;49.98;99336.06;5075893;28;20383;-64
2022/04/19 10:16:22;;;;;;;;;;;;;;;11.49;49.87;99341.72;5112164;28;19924;-63
2022/04/19 10:18:48;;;;;;;;;;;;;;;11.46;49.89;99343.00;5111045;28;19927;-63
2022/04/19 10:21:18;;;;;;;;;;;;;;;11.54;50.11;99350.53;5110333;28;19931;-63
2022/04/19 10:23:45;;;;;;;;;;;;;;;11.65;50.67;99342.72;5076091;28;19935;-65
2022/04/19 10:26:19;;;;;;;;;;;;;;;11.51;50.13;99345.72;5084716;28;20645;-64
2022/04/19 10:28:46;;;;;;;;;;;;;;;11.51;50.25;99332.44;5108068;28;19935;-62
2022/04/19 10:31:11;;;;;;;;;;;;;;;11.52;50.55;99342.00;5086908;28;20030;-61
2022/04/19 10:33:44;;;;;;;;;;;;;;;11.65;49.75;99346.19;5091046;28;20374;-62
2022/04/19 10:36:17;;;;;;;;;;;;;;;11.83;49.35;99348.53;5090553;28;20441;-64
2022/04/19 10:38:43;;;;;;;;;;;;;;;12.12;48.92;99340.44;5091213;28;19928;-64
2022/04/19 10:41:08;;;;;;;;;;;;;;;12.19;48.32;99342.88;5088422;28;20561;-64
2022/04/19 10:43:34;;;;;;;;;;;;;;;12.24;48.15;99341.09;5089096;28;19928;-64
2022/04/19 10:46:18;;;;;;;;;;;;;;;12.37;47.93;99337.22;5089733;28;19931;-62
2022/04/19 10:49:16;;;;;;;;;;;;;;;12.55;47.49;99354.69;5091051;28;19932;-61
2022/04/19 10:51:45;;;;;;;;;;;;;;;12.72;47.14;99344.75;5091330;28;19978;-63
2022/04/19 10:54:36;;;;;;;;;;;;;;;12.69;47.18;99355.91;5043181;28;19935;-64
2022/04/19 11:00:01;;;;;;;;;;;;;;;12.89;46.19;99341.97;5067807;28;19954;-63
2022/04/19 11:02:35;;;;;;;;;;;;;;;12.99;46.42;99341.25;5067428;28;19929;-63
2022/04/19 11:05:02;;;;;;;;;;;;;;;12.96;46.51;99342.56;5070327;28;19940;-63
2022/04/19 11:07:46;;;;;;;;;;;;;;;13.11;46.34;99333.09;5074811;28;19928;-62
2022/04/19 11:10:12;;;;;;;;;;;;;;;13.33;45.74;99317.84;5088830;28;20004;-63
2022/04/19 11:12:58;;;;;;;;;;;;;;;13.34;45.70;99323.97;5090676;28;20352;-64
2022/04/19 11:15:37;;;;;;;;;;;;;;;13.26;45.97;99327.09;5087053;28;20309;-64
2022/04/19 11:18:24;;;;;;;;;;;;;;;13.33;45.37;99339.16;5088177;28;19935;-65
2022/04/19 11:20:50;;;;;;;;;;;;;;;13.39;45.64;99308.03;5089890;28;19931;-64
2022/04/19 11:23:20;;;;;;;;;;;;;;;13.26;44.75;99309.28;5089471;28;19932;-64
2022/04/19 11:25:46;;;;;;;;;;;;;;;13.06;45.37;99311.75;5088445;28;19977;-66
2022/04/19 11:28:11;;;;;;;;;;;;;;;13.04;45.32;99309.38;5087678;28;19928;-64
2022/04/19 11:30:43;;;;;;;;;;;;;;;12.90;45.98;99321.50;5073657;28;19925;-63
2022/04/19 11:33:09;;;;;;;;;;;;;;;12.73;46.14;99319.78;5067889;28;19928;-64
2022/04/19 11:35:34;;;;;;;;;;;;;;;12.66;46.46;99313.06;5070590;28;20305;-65
2022/04/19 11:38:08;;;;;;;;;;;;;;;12.58;46.24;99308.19;5084543;28;20339;-62
2022/04/19 11:48:54;;;;;;;;;;;;;;;12.61;46.14;99286.41;5078751;28;19951;-65
2022/04/19 11:51:20;;;;;;;;;;;;;;;12.62;46.29;99285.38;5107333;28;20424;-65
2022/04/19 11:53:46;;;;;;;;;;;;;;;12.55;46.64;99285.56;5108973;28;19932;-65
2022/04/19 11:56:12;;;;;;;;;;;;;;;12.68;46.10;99282.50;5089698;28;19970;-67
2022/04/19 11:58:39;;;;;;;;;;;;;;;12.77;45.59;99292.69;5085889;28;20313;-66
2022/04/19 12:01:06;;;;;;;;;;;;;;;12.66;45.95;99287.25;5090159;28;19924;-62
2022/04/19 12:03:33;;;;;;;;;;;;;;;12.66;45.67;99273.97;5092561;28;20392;-62
2022/04/19 12:06:05;;;;;;;;;;;;;;;12.61;45.97;99281.09;5092542;28;19931;-66
2022/04/19 12:08:37;;;;;;;;;;;;;;;12.66;45.89;99265.97;5100146;28;19928;-67
2022/04/19 12:11:03;;;;;;;;;;;;;;;12.69;45.62;99262.81;5094476;28;19935;-66
2022/04/19 12:13:29;;;;;;;;;;;;;;;12.60;45.31;99288.28;5109455;28;19927;-67
2022/04/19 12:15:54;;;;;;;;;;;;;;;12.62;45.52;99275.53;5114910;28;20421;-65
2022/04/19 12:18:33;;;;;;;;;;;;;;;12.61;45.91;99279.22;5092331;28;20462;-65
2022/04/19 12:20:59;;;;;;;;;;;;;;;12.60;45.82;99282.94;5092785;28;20295;-63
2022/04/19 12:23:24;;;;;;;;;;;;;;;12.65;45.77;99283.00;5090589;28;19927;-64
2022/04/19 12:26:04;;;;;;;;;;;;;;;12.65;45.41;99276.88;5074468;28;19924;-63
2022/04/19 12:28:45;;;;;;;;;;;;;;;12.65;45.51;99264.38;5090745;28;19985;-65
2022/04/19 12:31:30;;;;;;;;;;;;;;;12.64;45.64;99286.69;5085313;28;19971;-61
2022/04/19 12:33:55;;;;;;;;;;;;;;;12.62;45.49;99275.53;5082816;28;19932;-66
2022/04/19 12:36:25;;;;;;;;;;;;;;;12.59;46.02;99265.41;5109350;28;19928;-65
2022/04/19 12:38:58;;;;;;;;;;;;;;;12.67;45.67;99286.19;5085175;28;19934;-65
2022/04/19 12:41:32;;;;;;;;;;;;;;;12.64;45.75;99269.94;5077932;28;20313;-65
2022/04/19 12:44:00;;;;;;;;;;;;;;;12.53;45.87;99293.00;5086870;28;19932;-67
2022/04/19 12:46:25;;;;;;;;;;;;;;;12.50;45.75;99272.25;5072901;28;19924;-67
2022/04/19 12:48:52;;;;;;;;;;;;;;;12.55;45.99;99298.06;5073459;28;19935;-65
2022/04/19 12:51:21;;;;;;;;;;;;;;;12.63;45.80;99276.31;5087287;28;19920;-66
2022/04/19 12:53:59;;;;;;;;;;;;;;;12.64;45.93;99262.75;5093230;28;19928;-66
2022/04/19 12:56:30;;;;;;;;;;;;;;;12.62;45.84;99262.25;5089165;28;20069;-65
2022/04/19 12:58:55;;;;;;;;;;;;;;;12.58;45.98;99255.00;5071680;28;19933;-66
2022/04/19 13:01:21;;;;;;;;;;;;;;;12.52;46.08;99261.34;5082473;28;19935;-67
2022/04/19 13:03:47;;;;;;;;;;;;;;;12.56;46.05;99265.09;5076144;28;19928;-65
2022/04/19 13:14:37;;;;;;;;;;;;;;;12.93;45.15;99283.75;5086093;28;19928;-62
2022/04/19 13:17:03;;;;;;;;;;;;;;;13.02;45.08;99260.13;5095266;28;20401;-62
2022/04/19 13:19:28;;;;;;;;;;;;;;;13.10;44.72;99264.97;5089679;28;19928;-64
2022/04/19 13:21:55;;;;;;;;;;;;;;;13.24;44.65;99250.16;5076059;28;19924;-62
2022/04/19 13:24:21;;;;;;;;;;;;;;;13.31;44.73;99244.63;5070841;28;19954;-66
2022/04/19 13:26:46;;;;;;;;;;;;;;;13.19;44.82;99253.56;5083570;28;20372;-62
2022/04/19 13:29:12;;;;;;;;;;;;;;;13.01;45.17;99259.31;5097184;28;19936;-63
2022/04/19 13:31:38;;;;;;;;;;;;;;;12.94;45.48;99242.75;5071806;28;19969;-63
2022/04/19 13:34:03;;;;;;;;;;;;;;;12.97;45.62;99242.28;5094917;28;19973;-64
2022/04/19 13:36:29;;;;;;;;;;;;;;;12.94;45.72;99246.25;5088548;28;19977;-63
2022/04/19 13:38:55;;;;;;;;;;;;;;;12.93;45.69;99238.50;5088751;28;20356;-64
2022/04/19 13:41:21;;;;;;;;;;;;;;;12.82;45.91;99239.50;5076115;28;20049;-62
2022/04/19 13:43:47;;;;;;;;;;;;;;;12.80;45.52;99262.91;5103908;28;19967;-63
2022/04/19 13:46:13;;;;;;;;;;;;;;;12.67;45.88;99227.69;5085527;28;19924;-63
2022/04/19 13:48:38;;;;;;;;;;;;;;;12.68;46.25;99234.63;5082493;28;19927;-64
2022/04/19 13:51:04;;;;;;;;;;;;;;;12.73;46.25;99225.88;5094546;28;19924;-62